createdAt,value
2023-05-21T00:00:17.671Z,0.00
2023-05-21T00:01:17.605Z,0.00
2023-05-21T00:02:17.671Z,0.00
2023-05-21T00:03:17.717Z,0.00
2023-05-21T00:04:17.642Z,0.00
2023-05-21T00:05:17.553Z,0.00
2023-05-21T00:06:17.565Z,0.00
2023-05-21T00:07:17.547Z,0.00
2023-05-21T00:08:17.487Z,0.00
2023-05-21T00:09:17.506Z,0.00
2023-05-21T00:10:17.463Z,0.00
2023-05-21T00:11:17.503Z,0.00
2023-05-21T00:12:17.458Z,0.00
2023-05-21T00:13:17.453Z,0.00
2023-05-21T00:14:17.421Z,0.00
2023-05-21T00:15:17.412Z,0.00
2023-05-21T00:16:17.435Z,0.00
2023-05-21T00:17:17.380Z,0.00
2023-05-21T00:18:17.367Z,0.00
2023-05-21T00:19:17.391Z,0.00
2023-05-21T00:20:17.366Z,0.00
2023-05-21T00:21:17.369Z,0.00
2023-05-21T00:22:17.303Z,0.00
2023-05-21T00:23:17.295Z,0.00
2023-05-21T00:24:17.276Z,0.00
2023-05-21T00:25:17.277Z,0.00
2023-05-21T00:26:17.260Z,0.00
2023-05-21T00:27:17.260Z,0.00
2023-05-21T00:28:17.229Z,0.00
2023-05-21T00:29:17.207Z,0.00
2023-05-21T00:30:17.248Z,0.00
2023-05-21T00:31:17.290Z,0.00
2023-05-21T00:32:17.199Z,0.00
2023-05-21T00:33:17.152Z,0.00
2023-05-21T00:34:17.166Z,0.00
2023-05-21T00:35:17.143Z,0.00
2023-05-21T00:36:17.148Z,0.00
2023-05-21T00:37:17.151Z,0.00
2023-05-21T00:38:17.098Z,0.00
2023-05-21T00:39:17.116Z,0.00
2023-05-21T00:40:17.073Z,0.00
2023-05-21T00:41:17.046Z,0.00
2023-05-21T00:42:17.048Z,0.00
2023-05-21T00:43:17.022Z,0.00
2023-05-21T00:44:17.056Z,0.00
2023-05-21T00:45:17.008Z,0.00
2023-05-21T00:46:16.988Z,0.00
2023-05-21T00:47:16.961Z,0.00
2023-05-21T00:48:16.973Z,0.00
2023-05-21T00:49:17.014Z,0.00
2023-05-21T00:50:16.933Z,0.00
2023-05-21T00:51:16.935Z,0.00
2023-05-21T00:52:16.898Z,0.00
2023-05-21T00:53:16.892Z,0.00
2023-05-21T00:54:16.879Z,0.00
2023-05-21T00:55:16.873Z,0.00
2023-05-21T00:56:16.839Z,0.00
2023-05-21T00:57:16.850Z,0.00
2023-05-21T00:58:16.830Z,0.00
2023-05-21T00:59:16.791Z,0.00
2023-05-21T01:00:16.798Z,0.00
2023-05-21T01:01:16.794Z,0.00
2023-05-21T01:02:17.036Z,0.00
2023-05-21T01:03:16.904Z,0.00
2023-05-21T01:04:16.748Z,0.00
2023-05-21T01:05:16.712Z,0.00
2023-05-21T01:06:16.735Z,0.00
2023-05-21T01:07:16.717Z,0.00
2023-05-21T01:08:16.682Z,0.00
2023-05-21T01:09:16.661Z,0.00
2023-05-21T01:10:16.671Z,0.00
2023-05-21T01:11:16.642Z,0.00
2023-05-21T01:12:16.643Z,0.00
2023-05-21T01:13:16.613Z,0.00
2023-05-21T01:14:16.597Z,0.00
2023-05-21T01:15:16.613Z,0.00
2023-05-21T01:16:16.601Z,0.00
2023-05-21T01:17:16.626Z,0.00
2023-05-21T01:18:16.598Z,0.00
2023-05-21T01:19:16.574Z,0.00
2023-05-21T01:20:16.527Z,0.00
2023-05-21T01:21:16.545Z,0.00
2023-05-21T01:22:16.518Z,0.00
2023-05-21T01:23:16.479Z,0.00
2023-05-21T01:24:16.498Z,0.00
2023-05-21T01:25:16.484Z,0.00
2023-05-21T01:26:16.443Z,0.00
2023-05-21T01:27:16.423Z,0.00
2023-05-21T01:28:16.419Z,0.00
2023-05-21T01:29:16.426Z,0.00
2023-05-21T01:30:16.407Z,0.00
2023-05-21T01:31:16.372Z,0.00
2023-05-21T01:32:16.375Z,0.00
2023-05-21T01:33:16.447Z,0.00
2023-05-21T01:34:16.347Z,0.00
2023-05-21T01:35:16.352Z,0.00
2023-05-21T01:36:16.310Z,0.00
2023-05-21T01:37:16.283Z,0.00
2023-05-21T01:38:16.303Z,0.00
2023-05-21T01:39:16.292Z,0.00
2023-05-21T01:40:16.283Z,0.00
2023-05-21T01:41:16.225Z,0.00
2023-05-21T01:42:16.222Z,0.00
2023-05-21T01:43:16.188Z,0.00
2023-05-21T01:44:16.234Z,0.00
2023-05-21T01:45:16.182Z,0.00
2023-05-21T01:46:16.233Z,0.00
2023-05-21T01:47:16.163Z,0.00
2023-05-21T01:48:16.146Z,0.00
2023-05-21T01:49:16.161Z,0.00
2023-05-21T01:50:16.165Z,0.00
2023-05-21T01:51:16.117Z,0.00
2023-05-21T01:52:16.102Z,0.00
2023-05-21T01:53:16.147Z,0.00
2023-05-21T01:54:16.097Z,0.00
2023-05-21T01:55:16.085Z,0.00
2023-05-21T01:56:16.190Z,0.00
2023-05-21T01:57:16.099Z,0.00
2023-05-21T01:58:16.124Z,0.00
2023-05-21T01:59:15.983Z,0.00
2023-05-21T02:00:16.013Z,0.00
2023-05-21T02:01:15.954Z,0.00
2023-05-21T02:02:16.065Z,0.00
2023-05-21T02:03:16.088Z,0.00
2023-05-21T02:04:15.939Z,0.00
2023-05-21T02:05:15.918Z,0.00
2023-05-21T02:06:15.937Z,0.00
2023-05-21T02:07:15.889Z,0.00
2023-05-21T02:08:15.863Z,0.00
2023-05-21T02:09:15.876Z,0.00
2023-05-21T02:10:15.939Z,0.00
2023-05-21T02:11:15.828Z,0.00
2023-05-21T02:12:15.848Z,0.00
2023-05-21T02:13:15.810Z,0.00
2023-05-21T02:14:15.793Z,0.00
2023-05-21T02:15:15.800Z,0.00
2023-05-21T02:16:15.792Z,0.00
2023-05-21T02:17:15.768Z,0.00
2023-05-21T02:18:15.742Z,0.00
2023-05-21T02:19:15.757Z,0.00
2023-05-21T02:20:15.727Z,0.00
2023-05-21T02:21:15.730Z,0.00
2023-05-21T02:22:15.684Z,0.00
2023-05-21T02:23:15.701Z,0.00
2023-05-21T02:24:15.680Z,0.00
2023-05-21T02:25:15.627Z,0.00
2023-05-21T02:26:15.647Z,0.00
2023-05-21T02:27:15.641Z,0.00
2023-05-21T02:28:15.599Z,0.00
2023-05-21T02:29:15.639Z,0.00
2023-05-21T02:30:15.583Z,0.00
2023-05-21T02:31:15.618Z,0.00
2023-05-21T02:32:15.559Z,0.00
2023-05-21T02:33:15.524Z,0.00
2023-05-21T02:34:15.541Z,0.00
2023-05-21T02:35:15.548Z,0.00
2023-05-21T02:36:15.554Z,0.00
2023-05-21T02:37:15.475Z,0.00
2023-05-21T02:38:15.477Z,0.00
2023-05-21T02:39:15.695Z,0.00
2023-05-21T02:40:15.453Z,0.00
2023-05-21T02:41:15.414Z,0.00
2023-05-21T02:42:15.439Z,0.00
2023-05-21T02:43:16.143Z,0.00
2023-05-21T02:44:15.404Z,0.00
2023-05-21T02:45:15.357Z,0.00
2023-05-21T02:46:15.433Z,0.00
2023-05-21T02:47:15.339Z,0.00
2023-05-21T02:48:15.323Z,0.00
2023-05-21T02:49:15.325Z,0.00
2023-05-21T02:50:15.316Z,0.00
2023-05-21T02:51:15.323Z,0.00
2023-05-21T02:52:15.272Z,0.00
2023-05-21T02:53:15.265Z,0.00
2023-05-21T02:54:15.284Z,0.00
2023-05-21T02:55:15.243Z,0.00
2023-05-21T02:56:15.218Z,0.00
2023-05-21T02:57:15.214Z,0.00
2023-05-21T02:58:15.230Z,0.00
2023-05-21T02:59:15.180Z,0.00
2023-05-21T03:00:15.156Z,0.00
2023-05-21T03:01:15.186Z,0.00
2023-05-21T03:02:15.229Z,0.00
2023-05-21T03:03:15.239Z,0.00
2023-05-21T03:04:15.136Z,0.00
2023-05-21T03:05:15.108Z,0.00
2023-05-21T03:06:15.082Z,0.00
2023-05-21T03:07:15.094Z,0.00
2023-05-21T03:08:15.097Z,0.00
2023-05-21T03:09:15.040Z,0.00
2023-05-21T03:10:15.048Z,0.00
2023-05-21T03:11:15.018Z,0.00
2023-05-21T03:12:15.044Z,0.00
2023-05-21T03:13:14.994Z,0.00
2023-05-21T03:14:14.982Z,0.00
2023-05-21T03:15:15.052Z,0.00
2023-05-21T03:16:15.003Z,0.00
2023-05-21T03:17:14.945Z,0.00
2023-05-21T03:18:14.996Z,0.00
2023-05-21T03:19:14.926Z,0.00
2023-05-21T03:20:14.895Z,0.00
2023-05-21T03:21:14.880Z,0.00
2023-05-21T03:22:14.896Z,0.00
2023-05-21T03:23:16.649Z,0.00
2023-05-21T03:24:14.829Z,0.00
2023-05-21T03:25:14.829Z,0.00
2023-05-21T03:26:14.823Z,0.00
2023-05-21T03:27:14.823Z,0.00
2023-05-21T03:28:14.795Z,0.00
2023-05-21T03:29:14.766Z,0.00
2023-05-21T03:30:14.762Z,0.00
2023-05-21T03:31:14.749Z,0.00
2023-05-21T03:32:14.930Z,0.00
2023-05-21T03:33:14.707Z,0.00
2023-05-21T03:34:14.697Z,0.00
2023-05-21T03:35:14.725Z,0.00
2023-05-21T03:36:14.689Z,0.00
2023-05-21T03:37:14.673Z,0.00
2023-05-21T03:38:14.649Z,0.00
2023-05-21T03:39:14.627Z,0.00
2023-05-21T03:40:14.633Z,0.00
2023-05-21T03:41:14.631Z,0.00
2023-05-21T03:42:14.590Z,0.00
2023-05-21T03:43:14.578Z,0.00
2023-05-21T03:44:14.604Z,0.00
2023-05-21T03:45:14.554Z,0.00
2023-05-21T03:46:14.584Z,0.00
2023-05-21T03:47:14.539Z,0.00
2023-05-21T03:48:14.518Z,0.00
2023-05-21T03:49:14.502Z,0.00
2023-05-21T03:50:14.514Z,0.00
2023-05-21T03:51:14.458Z,0.00
2023-05-21T03:52:14.469Z,0.00
2023-05-21T03:53:14.449Z,0.00
2023-05-21T03:54:14.439Z,0.00
2023-05-21T03:55:14.436Z,0.00
2023-05-21T03:56:14.406Z,0.00
2023-05-21T03:57:14.396Z,0.00
2023-05-21T03:58:14.365Z,5.62
2023-05-21T03:59:14.367Z,5.62
2023-05-21T04:00:14.347Z,5.62
2023-05-21T04:01:14.344Z,5.62
2023-05-21T04:02:14.381Z,5.62
2023-05-21T04:03:14.391Z,5.62
2023-05-21T04:04:14.439Z,5.62
2023-05-21T04:05:14.265Z,5.62
2023-05-21T04:06:14.310Z,5.62
2023-05-21T04:07:14.244Z,5.62
2023-05-21T04:08:14.265Z,5.62
2023-05-21T04:09:14.289Z,5.62
2023-05-21T04:10:14.231Z,5.62
2023-05-21T04:11:14.186Z,5.62
2023-05-21T04:12:14.191Z,5.62
2023-05-21T04:13:14.185Z,5.62
2023-05-21T04:14:14.157Z,5.62
2023-05-21T04:15:14.133Z,5.62
2023-05-21T04:16:14.185Z,11.25
2023-05-21T04:17:14.106Z,11.25
2023-05-21T04:18:14.107Z,11.25
2023-05-21T04:19:14.144Z,11.25
2023-05-21T04:20:14.068Z,11.25
2023-05-21T04:21:14.054Z,11.25
2023-05-21T04:22:14.185Z,11.25
2023-05-21T04:23:14.074Z,11.25
2023-05-21T04:24:14.018Z,11.25
2023-05-21T04:25:14.009Z,16.88
2023-05-21T04:26:13.994Z,16.88
2023-05-21T04:27:14.131Z,16.88
2023-05-21T04:28:13.965Z,16.88
2023-05-21T04:29:13.947Z,16.88
2023-05-21T04:30:13.976Z,16.88
2023-05-21T04:31:14.012Z,16.88
2023-05-21T04:32:13.945Z,16.88
2023-05-21T04:33:13.919Z,16.88
2023-05-21T04:34:13.898Z,16.88
2023-05-21T04:35:13.871Z,16.88
2023-05-21T04:36:13.856Z,16.88
2023-05-21T04:37:13.853Z,16.88
2023-05-21T04:38:13.837Z,16.88
2023-05-21T04:39:13.807Z,22.50
2023-05-21T04:40:13.813Z,22.50
2023-05-21T04:41:13.835Z,22.50
2023-05-21T04:42:13.793Z,22.50
2023-05-21T04:43:13.807Z,22.50
2023-05-21T04:44:13.746Z,22.50
2023-05-21T04:45:13.747Z,22.50
2023-05-21T04:46:13.787Z,22.50
2023-05-21T04:47:13.709Z,22.50
2023-05-21T04:48:13.695Z,22.50
2023-05-21T04:49:13.684Z,28.12
2023-05-21T04:50:13.671Z,28.12
2023-05-21T04:51:13.687Z,28.12
2023-05-21T04:52:13.633Z,28.12
2023-05-21T04:53:13.632Z,28.12
2023-05-21T04:54:13.629Z,28.12
2023-05-21T04:55:13.660Z,28.12
2023-05-21T04:56:13.609Z,28.12
2023-05-21T04:57:13.585Z,33.75
2023-05-21T04:58:13.579Z,33.75
2023-05-21T04:59:13.553Z,33.75
2023-05-21T05:00:13.545Z,33.75
2023-05-21T05:01:13.544Z,33.75
2023-05-21T05:02:13.499Z,33.75
2023-05-21T05:03:13.683Z,39.38
2023-05-21T05:04:13.488Z,39.38
2023-05-21T05:05:13.490Z,39.38
2023-05-21T05:06:13.480Z,39.38
2023-05-21T05:07:13.441Z,39.38
2023-05-21T05:08:15.860Z,39.38
2023-05-21T05:09:13.428Z,39.38
2023-05-21T05:10:13.404Z,39.38
2023-05-21T05:11:13.386Z,45.00
2023-05-21T05:12:13.371Z,45.00
2023-05-21T05:13:13.379Z,45.00
2023-05-21T05:14:13.352Z,45.00
2023-05-21T05:15:13.345Z,45.00
2023-05-21T05:16:13.326Z,45.00
2023-05-21T05:17:13.336Z,45.00
2023-05-21T05:18:13.318Z,50.62
2023-05-21T05:19:13.380Z,50.62
2023-05-21T05:20:13.262Z,50.62
2023-05-21T05:21:13.259Z,50.62
2023-05-21T05:22:13.689Z,50.62
2023-05-21T05:23:13.267Z,50.62
2023-05-21T05:24:13.211Z,50.62
2023-05-21T05:25:13.194Z,50.62
2023-05-21T05:26:13.203Z,50.62
2023-05-21T05:27:13.160Z,50.62
2023-05-21T05:28:13.172Z,50.62
2023-05-21T05:29:13.153Z,50.62
2023-05-21T05:30:13.137Z,50.62
2023-05-21T05:31:13.212Z,50.62
2023-05-21T05:32:13.422Z,50.62
2023-05-21T05:33:13.093Z,56.25
2023-05-21T05:34:13.062Z,56.25
2023-05-21T05:35:13.080Z,56.25
2023-05-21T05:36:13.034Z,56.25
2023-05-21T05:37:13.042Z,56.25
2023-05-21T05:38:13.027Z,56.25
2023-05-21T05:39:12.996Z,61.88
2023-05-21T05:40:12.995Z,61.88
2023-05-21T05:41:12.989Z,61.88
2023-05-21T05:42:12.962Z,61.88
2023-05-21T05:43:12.963Z,61.88
2023-05-21T05:44:12.929Z,61.88
2023-05-21T05:45:12.931Z,61.88
2023-05-21T05:46:12.984Z,61.88
2023-05-21T05:47:12.889Z,61.88
2023-05-21T05:48:12.864Z,61.88
2023-05-21T05:49:12.868Z,61.88
2023-05-21T05:50:12.874Z,61.88
2023-05-21T05:51:12.863Z,61.88
2023-05-21T05:52:12.808Z,61.88
2023-05-21T05:53:12.805Z,61.88
2023-05-21T05:54:12.789Z,61.88
2023-05-21T05:55:12.803Z,67.50
2023-05-21T05:56:12.782Z,67.50
2023-05-21T05:57:12.762Z,67.50
2023-05-21T05:58:12.732Z,67.50
2023-05-21T05:59:12.729Z,67.50
2023-05-21T06:00:12.707Z,73.12
2023-05-21T06:01:12.715Z,73.12
2023-05-21T06:02:12.735Z,73.12
2023-05-21T06:03:12.795Z,73.12
2023-05-21T06:04:12.652Z,73.12
2023-05-21T06:05:12.669Z,78.75
2023-05-21T06:06:12.646Z,78.75
2023-05-21T06:07:12.640Z,78.75
2023-05-21T06:08:12.588Z,78.75
2023-05-21T06:09:12.593Z,84.38
2023-05-21T06:10:12.600Z,84.38
2023-05-21T06:11:12.566Z,84.38
2023-05-21T06:12:14.985Z,84.38
2023-05-21T06:13:12.530Z,84.38
2023-05-21T06:14:12.537Z,84.38
2023-05-21T06:15:12.535Z,84.38
2023-05-21T06:16:12.541Z,84.38
2023-05-21T06:17:12.518Z,84.38
2023-05-21T06:18:12.482Z,84.38
2023-05-21T06:19:12.505Z,84.38
2023-05-21T06:20:12.468Z,84.38
2023-05-21T06:21:12.535Z,84.38
2023-05-21T06:22:12.442Z,84.38
2023-05-21T06:23:12.408Z,84.38
2023-05-21T06:24:12.411Z,90.00
2023-05-21T06:25:12.420Z,90.00
2023-05-21T06:26:12.355Z,90.00
2023-05-21T06:27:12.371Z,90.00
2023-05-21T06:28:12.352Z,95.62
2023-05-21T06:29:14.266Z,95.62
2023-05-21T06:30:12.322Z,101.25
2023-05-21T06:31:12.310Z,106.88
2023-05-21T06:32:12.287Z,106.88
2023-05-21T06:33:12.418Z,112.50
2023-05-21T06:34:12.416Z,112.50
2023-05-21T06:35:12.270Z,118.12
2023-05-21T06:36:12.225Z,118.12
2023-05-21T06:37:12.361Z,123.75
2023-05-21T06:38:12.255Z,123.75
2023-05-21T06:39:12.302Z,129.38
2023-05-21T06:40:12.185Z,129.38
2023-05-21T06:41:12.166Z,129.38
2023-05-21T06:42:12.276Z,129.38
2023-05-21T06:43:12.228Z,129.38
2023-05-21T06:44:12.162Z,129.38
2023-05-21T06:45:12.214Z,129.38
2023-05-21T06:46:16.478Z,129.38
2023-05-21T06:47:12.202Z,129.38
2023-05-21T06:48:12.254Z,123.75
2023-05-21T06:49:14.135Z,123.75
2023-05-21T06:50:12.051Z,123.75
2023-05-21T06:51:12.023Z,123.75
2023-05-21T06:52:12.096Z,118.12
2023-05-21T06:53:12.000Z,118.12
2023-05-21T06:54:12.008Z,118.12
2023-05-21T06:55:11.992Z,118.12
2023-05-21T06:56:11.983Z,118.12
2023-05-21T06:57:11.989Z,112.50
2023-05-21T06:58:11.966Z,112.50
2023-05-21T06:59:11.940Z,112.50
2023-05-21T07:00:11.941Z,106.88
2023-05-21T07:01:12.036Z,106.88
2023-05-21T07:02:11.911Z,106.88
2023-05-21T07:03:11.932Z,106.88
2023-05-21T07:04:11.924Z,106.88
2023-05-21T07:05:11.852Z,101.25
2023-05-21T07:06:11.854Z,101.25
2023-05-21T07:07:11.853Z,101.25
2023-05-21T07:08:12.294Z,101.25
2023-05-21T07:09:11.855Z,101.25
2023-05-21T07:10:11.794Z,101.25
2023-05-21T07:11:11.865Z,101.25
2023-05-21T07:12:11.842Z,106.88
2023-05-21T07:13:11.745Z,106.88
2023-05-21T07:14:11.717Z,106.88
2023-05-21T07:15:11.729Z,112.50
2023-05-21T07:16:11.691Z,112.50
2023-05-21T07:17:11.750Z,118.12
2023-05-21T07:18:11.708Z,118.12
2023-05-21T07:19:11.729Z,118.12
2023-05-21T07:20:11.659Z,118.12
2023-05-21T07:21:11.629Z,123.75
2023-05-21T07:22:11.588Z,129.38
2023-05-21T07:23:11.594Z,129.38
2023-05-21T07:24:11.607Z,135.00
2023-05-21T07:25:11.592Z,135.00
2023-05-21T07:26:11.548Z,135.00
2023-05-21T07:27:24.745Z,135.00
2023-05-21T07:28:12.521Z,135.00
2023-05-21T07:29:11.570Z,135.00
2023-05-21T07:30:11.511Z,135.00
2023-05-21T07:31:11.523Z,140.62
2023-05-21T07:32:11.463Z,140.62
2023-05-21T07:33:11.554Z,140.62
2023-05-21T07:34:11.460Z,140.62
2023-05-21T07:35:11.445Z,140.62
2023-05-21T07:36:11.397Z,146.25
2023-05-21T07:37:11.403Z,146.25
2023-05-21T07:38:11.405Z,146.25
2023-05-21T07:39:11.390Z,146.25
2023-05-21T07:40:11.363Z,146.25
2023-05-21T07:41:11.349Z,146.25
2023-05-21T07:42:11.336Z,146.25
2023-05-21T07:43:11.336Z,151.88
2023-05-21T07:44:11.325Z,151.88
2023-05-21T07:45:11.310Z,146.25
2023-05-21T07:46:11.299Z,151.88
2023-05-21T07:47:11.312Z,151.88
2023-05-21T07:48:11.264Z,151.88
2023-05-21T07:49:11.225Z,151.88
2023-05-21T07:50:11.231Z,151.88
2023-05-21T07:51:11.216Z,151.88
2023-05-21T07:52:11.233Z,151.88
2023-05-21T07:53:11.221Z,151.88
2023-05-21T07:54:11.180Z,151.88
2023-05-21T07:55:11.178Z,151.88
2023-05-21T07:56:11.152Z,151.88
2023-05-21T07:57:11.157Z,151.88
2023-05-21T07:58:11.104Z,151.88
2023-05-21T07:59:12.788Z,151.88
2023-05-21T08:00:11.124Z,151.88
2023-05-21T08:01:11.101Z,157.50
2023-05-21T08:02:11.077Z,157.50
2023-05-21T08:03:11.163Z,157.50
2023-05-21T08:04:11.203Z,163.12
2023-05-21T08:05:11.054Z,163.12
2023-05-21T08:06:11.184Z,163.12
2023-05-21T08:07:11.074Z,168.75
2023-05-21T08:08:10.988Z,174.38
2023-05-21T08:09:10.952Z,174.38
2023-05-21T08:10:10.992Z,180.00
2023-05-21T08:11:11.096Z,180.00
2023-05-21T08:12:10.942Z,185.62
2023-05-21T08:13:10.905Z,191.25
2023-05-21T08:14:10.893Z,191.25
2023-05-21T08:15:10.872Z,191.25
2023-05-21T08:16:11.091Z,196.88
2023-05-21T08:17:10.866Z,202.50
2023-05-21T08:18:10.937Z,202.50
2023-05-21T08:19:10.852Z,202.50
2023-05-21T08:20:10.850Z,196.88
2023-05-21T08:21:10.857Z,196.88
2023-05-21T08:22:10.794Z,196.88
2023-05-21T08:23:10.786Z,196.88
2023-05-21T08:24:10.751Z,208.12
2023-05-21T08:25:10.780Z,208.12
2023-05-21T08:26:10.748Z,202.50
2023-05-21T08:27:10.724Z,191.25
2023-05-21T08:28:10.686Z,185.62
2023-05-21T08:29:10.727Z,185.62
2023-05-21T08:30:10.693Z,185.62
2023-05-21T08:31:10.671Z,185.62
2023-05-21T08:32:10.693Z,185.62
2023-05-21T08:33:10.688Z,191.25
2023-05-21T08:34:10.636Z,196.88
2023-05-21T08:35:10.636Z,202.50
2023-05-21T08:36:10.587Z,202.50
2023-05-21T08:37:10.594Z,202.50
2023-05-21T08:38:10.559Z,202.50
2023-05-21T08:39:10.610Z,202.50
2023-05-21T08:40:10.563Z,196.88
2023-05-21T08:41:10.505Z,202.50
2023-05-21T08:42:10.523Z,208.12
2023-05-21T08:43:10.499Z,219.38
2023-05-21T08:44:10.503Z,225.00
2023-05-21T08:45:10.476Z,225.00
2023-05-21T08:46:10.491Z,230.62
2023-05-21T08:47:10.454Z,236.25
2023-05-21T08:48:10.442Z,241.88
2023-05-21T08:49:10.409Z,253.12
2023-05-21T08:50:10.423Z,258.75
2023-05-21T08:51:10.405Z,258.75
2023-05-21T08:52:10.369Z,253.12
2023-05-21T08:53:19.726Z,253.12
2023-05-21T08:54:11.338Z,258.75
2023-05-21T08:55:10.353Z,264.38
2023-05-21T08:56:10.325Z,264.38
2023-05-21T08:57:10.316Z,270.00
2023-05-21T08:58:10.323Z,270.00
2023-05-21T08:59:10.267Z,270.00
2023-05-21T09:00:10.273Z,270.00
2023-05-21T09:01:10.273Z,270.00
2023-05-21T09:02:10.243Z,264.38
2023-05-21T09:03:10.271Z,264.38
2023-05-21T09:04:20.201Z,270.00
2023-05-21T09:05:11.178Z,264.38
2023-05-21T09:06:10.191Z,270.00
2023-05-21T09:07:10.175Z,270.00
2023-05-21T09:08:10.148Z,270.00
2023-05-21T09:09:10.133Z,275.62
2023-05-21T09:10:10.125Z,275.62
2023-05-21T09:11:10.119Z,275.62
2023-05-21T09:12:10.084Z,281.25
2023-05-21T09:13:10.082Z,292.50
2023-05-21T09:14:10.077Z,298.12
2023-05-21T09:15:10.051Z,292.50
2023-05-21T09:16:10.094Z,292.50
2023-05-21T09:17:10.037Z,292.50
2023-05-21T09:18:10.084Z,292.50
2023-05-21T09:19:10.031Z,298.12
2023-05-21T09:20:10.010Z,292.50
2023-05-21T09:21:09.983Z,286.88
2023-05-21T09:22:09.959Z,292.50
2023-05-21T09:23:09.951Z,292.50
2023-05-21T09:24:09.944Z,292.50
2023-05-21T09:25:09.921Z,286.88
2023-05-21T09:26:09.906Z,286.88
2023-05-21T09:27:09.882Z,286.88
2023-05-21T09:28:09.877Z,286.88
2023-05-21T09:29:09.870Z,286.88
2023-05-21T09:30:09.900Z,286.88
2023-05-21T09:31:09.876Z,286.88
2023-05-21T09:32:09.923Z,281.25
2023-05-21T09:33:09.820Z,281.25
2023-05-21T09:34:09.822Z,275.62
2023-05-21T09:35:09.821Z,270.00
2023-05-21T09:36:09.772Z,270.00
2023-05-21T09:37:23.779Z,264.38
2023-05-21T09:38:10.743Z,264.38
2023-05-21T09:39:09.771Z,258.75
2023-05-21T09:40:09.722Z,253.12
2023-05-21T09:41:09.694Z,253.12
2023-05-21T09:42:09.683Z,253.12
2023-05-21T09:43:09.670Z,253.12
2023-05-21T09:44:09.870Z,258.75
2023-05-21T09:45:09.649Z,258.75
2023-05-21T09:46:09.661Z,258.75
2023-05-21T09:47:09.613Z,258.75
2023-05-21T09:48:09.659Z,264.38
2023-05-21T09:49:09.601Z,270.00
2023-05-21T09:50:09.587Z,270.00
2023-05-21T09:51:09.567Z,275.62
2023-05-21T09:52:09.564Z,281.25
2023-05-21T09:53:09.561Z,286.88
2023-05-21T09:54:09.527Z,292.50
2023-05-21T09:55:09.505Z,303.75
2023-05-21T09:56:09.497Z,320.62
2023-05-21T09:57:09.477Z,331.88
2023-05-21T09:58:09.489Z,337.50
2023-05-21T09:59:09.458Z,337.50
2023-05-21T10:00:09.450Z,331.88
2023-05-21T10:01:09.429Z,326.25
2023-05-21T10:02:09.575Z,320.62
2023-05-21T10:03:09.456Z,326.25
2023-05-21T10:04:09.456Z,315.00
2023-05-21T10:05:09.366Z,320.62
2023-05-21T10:06:09.371Z,315.00
2023-05-21T10:07:09.357Z,309.38
2023-05-21T10:08:09.387Z,303.75
2023-05-21T10:09:09.323Z,303.75
2023-05-21T10:10:09.307Z,309.38
2023-05-21T10:11:09.297Z,315.00
2023-05-21T10:12:09.300Z,320.62
2023-05-21T10:13:09.259Z,320.62
2023-05-21T10:14:09.270Z,315.00
2023-05-21T10:15:09.239Z,315.00
2023-05-21T10:16:09.292Z,315.00
2023-05-21T10:17:09.218Z,309.38
2023-05-21T10:18:09.262Z,315.00
2023-05-21T10:19:09.219Z,320.62
2023-05-21T10:20:09.182Z,326.25
2023-05-21T10:21:09.170Z,331.88
2023-05-21T10:22:09.153Z,354.38
2023-05-21T10:23:09.133Z,371.25
2023-05-21T10:24:09.146Z,399.38
2023-05-21T10:25:09.110Z,410.62
2023-05-21T10:26:09.124Z,416.25
2023-05-21T10:27:09.081Z,410.62
2023-05-21T10:28:09.070Z,416.25
2023-05-21T10:29:09.083Z,410.62
2023-05-21T10:30:09.044Z,421.88
2023-05-21T10:31:09.016Z,421.88
2023-05-21T10:32:09.023Z,416.25
2023-05-21T10:33:09.018Z,410.62
2023-05-21T10:34:08.978Z,405.00
2023-05-21T10:35:08.996Z,405.00
2023-05-21T10:36:08.965Z,405.00
2023-05-21T10:37:08.939Z,399.38
2023-05-21T10:38:08.927Z,399.38
2023-05-21T10:39:08.926Z,388.12
2023-05-21T10:40:08.935Z,393.75
2023-05-21T10:41:08.890Z,393.75
2023-05-21T10:42:08.893Z,399.38
2023-05-21T10:43:08.858Z,399.38
2023-05-21T10:44:08.881Z,393.75
2023-05-21T10:45:08.832Z,399.38
2023-05-21T10:46:08.880Z,393.75
2023-05-21T10:47:08.800Z,388.12
2023-05-21T10:48:08.819Z,393.75
2023-05-21T10:49:08.857Z,393.75
2023-05-21T10:50:08.772Z,393.75
2023-05-21T10:51:08.757Z,399.38
2023-05-21T10:52:08.742Z,416.25
2023-05-21T10:53:10.656Z,410.62
2023-05-21T10:54:08.740Z,405.00
2023-05-21T10:55:08.692Z,405.00
2023-05-21T10:56:08.694Z,405.00
2023-05-21T10:57:08.671Z,416.25
2023-05-21T10:58:08.686Z,427.50
2023-05-21T10:59:08.643Z,438.75
2023-05-21T11:00:08.679Z,444.38
2023-05-21T11:01:08.678Z,438.75
2023-05-21T11:02:08.677Z,438.75
2023-05-21T11:03:08.704Z,433.12
2023-05-21T11:04:08.585Z,416.25
2023-05-21T11:05:08.558Z,416.25
2023-05-21T11:06:08.652Z,455.62
2023-05-21T11:07:08.602Z,478.12
2023-05-21T11:08:08.551Z,495.00
2023-05-21T11:09:08.510Z,466.88
2023-05-21T11:10:08.500Z,506.25
2023-05-21T11:11:08.473Z,618.75
2023-05-21T11:12:08.505Z,720.00
2023-05-21T11:13:08.467Z,720.00
2023-05-21T11:14:08.437Z,720.00
2023-05-21T11:15:08.420Z,658.12
2023-05-21T11:16:08.409Z,658.12
2023-05-21T11:17:08.443Z,753.75
2023-05-21T11:18:08.464Z,826.88
2023-05-21T11:19:08.380Z,787.50
2023-05-21T11:20:08.358Z,911.25
2023-05-21T11:21:08.361Z,888.75
2023-05-21T11:22:08.352Z,832.50
2023-05-21T11:23:08.327Z,663.75
2023-05-21T11:24:08.365Z,686.25
2023-05-21T11:25:08.296Z,978.75
2023-05-21T11:26:08.301Z,1074.38
2023-05-21T11:27:08.265Z,928.12
2023-05-21T11:28:08.253Z,883.12
2023-05-21T11:29:08.246Z,826.88
2023-05-21T11:30:08.273Z,714.38
2023-05-21T11:31:08.247Z,759.38
2023-05-21T11:32:08.208Z,720.00
2023-05-21T11:33:08.343Z,703.12
2023-05-21T11:34:08.171Z,995.62
2023-05-21T11:35:08.268Z,1406.25
2023-05-21T11:36:08.178Z,1113.75
2023-05-21T11:37:08.134Z,883.12
2023-05-21T11:38:08.122Z,978.75
2023-05-21T11:39:08.108Z,1074.38
2023-05-21T11:40:08.103Z,1220.62
2023-05-21T11:41:08.101Z,1125.00
2023-05-21T11:42:08.073Z,1563.75
2023-05-21T11:43:08.054Z,1732.50
2023-05-21T11:44:08.047Z,1816.88
2023-05-21T11:45:08.032Z,1687.50
2023-05-21T11:46:08.045Z,1788.75
2023-05-21T11:47:08.005Z,1715.62
2023-05-21T11:48:08.034Z,1732.50
2023-05-21T11:49:08.017Z,1777.50
2023-05-21T11:50:07.980Z,1704.38
2023-05-21T11:51:07.944Z,1738.12
2023-05-21T11:52:07.939Z,1845.00
2023-05-21T11:53:07.911Z,1828.12
2023-05-21T11:54:07.922Z,1693.12
2023-05-21T11:55:07.894Z,1850.62
2023-05-21T11:56:07.884Z,1738.12
2023-05-21T11:57:07.881Z,1648.12
2023-05-21T11:58:07.856Z,1693.12
2023-05-21T11:59:07.858Z,1676.25
2023-05-21T12:00:07.841Z,1693.12
2023-05-21T12:01:07.815Z,1833.75
2023-05-21T12:02:07.811Z,1968.75
2023-05-21T12:03:07.954Z,2047.50
2023-05-21T12:04:07.909Z,2070.00
2023-05-21T12:05:07.756Z,2053.12
2023-05-21T12:06:07.785Z,2064.38
2023-05-21T12:07:07.741Z,2171.25
2023-05-21T12:08:07.755Z,2165.62
2023-05-21T12:09:07.720Z,1968.75
2023-05-21T12:10:07.705Z,1906.88
2023-05-21T12:11:07.696Z,1884.38
2023-05-21T12:12:07.673Z,1901.25
2023-05-21T12:13:07.677Z,1912.50
2023-05-21T12:14:07.685Z,1912.50
2023-05-21T12:15:07.639Z,1895.62
2023-05-21T12:16:07.638Z,1861.88
2023-05-21T12:17:07.640Z,1912.50
2023-05-21T12:18:07.715Z,2058.75
2023-05-21T12:19:07.619Z,2086.88
2023-05-21T12:20:07.575Z,1957.50
2023-05-21T12:21:07.568Z,1991.25
2023-05-21T12:22:07.566Z,1620.00
2023-05-21T12:23:07.532Z,1653.75
2023-05-21T12:24:07.552Z,1710.00
2023-05-21T12:25:07.574Z,1906.88
2023-05-21T12:26:07.566Z,1985.62
2023-05-21T12:27:07.585Z,1867.50
2023-05-21T12:28:07.596Z,2058.75
2023-05-21T12:29:07.627Z,2064.38
2023-05-21T12:30:07.519Z,1850.62
2023-05-21T12:31:07.535Z,1935.00
2023-05-21T12:32:07.708Z,2092.50
2023-05-21T12:33:07.551Z,2137.50
2023-05-21T12:34:07.457Z,2120.62
2023-05-21T12:35:07.499Z,2148.75
2023-05-21T12:36:07.550Z,2126.25
2023-05-21T12:37:07.430Z,2092.50
2023-05-21T12:38:07.413Z,2176.88
2023-05-21T12:39:08.389Z,2238.75
2023-05-21T12:40:07.429Z,2193.75
2023-05-21T12:41:07.480Z,2165.62
2023-05-21T12:42:07.351Z,2075.62
2023-05-21T12:43:07.337Z,2171.25
2023-05-21T12:44:07.258Z,2053.12
2023-05-21T12:45:07.255Z,1766.25
2023-05-21T12:46:07.284Z,1777.50